createdAt,value
2023-04-09T00:01:43.080Z,101369.46
2023-04-09T00:04:10.897Z,101364.27
2023-04-09T00:06:37.710Z,101363.66
2023-04-09T00:09:04.688Z,101360.80
2023-04-09T00:11:37.298Z,101362.64
2023-04-09T00:14:04.352Z,101362.09
2023-04-09T00:16:31.323Z,101358.09
2023-04-09T00:19:00.419Z,101358.02
2023-04-09T00:21:27.748Z,101362.42
2023-04-09T00:23:54.794Z,101362.84
2023-04-09T00:26:22.454Z,101361.42
2023-04-09T00:28:51.658Z,101361.98
2023-04-09T00:31:20.591Z,101362.95
2023-04-09T00:33:48.205Z,101362.85
2023-04-09T00:36:16.321Z,101364.33
2023-04-09T00:38:43.541Z,101364.66
2023-04-09T00:41:12.942Z,101359.05
2023-04-09T00:43:40.248Z,101363.11
2023-04-09T00:46:07.466Z,101361.41
2023-04-09T00:48:34.338Z,101362.55
2023-04-09T00:51:01.256Z,101360.34
2023-04-09T00:53:30.290Z,101355.38
2023-04-09T00:55:57.012Z,101359.52
2023-04-09T00:58:32.718Z,101355.62
2023-04-09T01:01:00.661Z,101352.98
2023-04-09T01:03:28.991Z,101357.02
2023-04-09T01:06:17.717Z,101359.80
2023-04-09T01:09:00.184Z,101362.84
2023-04-09T01:12:02.200Z,101359.53
2023-04-09T01:14:37.568Z,101355.63
2023-04-09T01:17:12.996Z,101361.58
2023-04-09T01:19:48.431Z,101362.39
2023-04-09T01:22:50.193Z,101356.78
2023-04-09T01:25:29.809Z,101358.94
2023-04-09T01:28:12.482Z,101361.41
2023-04-09T01:30:40.263Z,101361.27
2023-04-09T01:33:07.129Z,101357.31
2023-04-09T01:35:33.936Z,101356.42
2023-04-09T01:38:00.827Z,101356.80
2023-04-09T01:40:28.402Z,101361.45
2023-04-09T01:42:55.361Z,101356.11
2023-04-09T01:45:23.285Z,101358.77
2023-04-09T01:47:50.268Z,101364.36
2023-04-09T01:50:18.868Z,101364.75
2023-04-09T01:52:47.849Z,101359.82
2023-04-09T01:55:14.670Z,101361.34
2023-04-09T01:57:41.457Z,101363.67
2023-04-09T02:00:10.208Z,101357.36
2023-04-09T02:02:55.665Z,101361.54
2023-04-09T02:05:22.924Z,101358.47
2023-04-09T02:07:55.960Z,101361.65
2023-04-09T02:10:24.335Z,101362.73
2023-04-09T02:12:51.280Z,101361.70
2023-04-09T02:15:20.226Z,101361.02
2023-04-09T02:17:48.088Z,101357.29
2023-04-09T02:20:18.616Z,101354.05
2023-04-09T02:22:46.360Z,101355.13
2023-04-09T02:25:13.531Z,101358.30
2023-04-09T02:27:40.541Z,101354.20
2023-04-09T02:30:08.023Z,101352.13
2023-04-09T02:32:36.264Z,101352.98
2023-04-09T02:35:07.347Z,101356.02
2023-04-09T02:37:34.415Z,101360.16
2023-04-09T02:40:01.170Z,101361.91
2023-04-09T02:42:28.250Z,101363.87
2023-04-09T02:44:57.251Z,101356.77
2023-04-09T02:47:30.077Z,101360.05
2023-04-09T02:49:57.560Z,101365.75
2023-04-09T02:52:25.547Z,101367.56
2023-04-09T02:54:53.342Z,101373.31
2023-04-09T02:57:20.353Z,101373.67
2023-04-09T02:59:47.322Z,101375.98
2023-04-09T03:02:14.605Z,101377.08
2023-04-09T03:04:41.843Z,101377.97
2023-04-09T03:07:09.185Z,101378.20
2023-04-09T03:09:37.101Z,101377.83
2023-04-09T03:12:04.312Z,101381.69
2023-04-09T03:14:31.183Z,101386.70
2023-04-09T03:16:57.980Z,101388.21
2023-04-09T03:19:25.129Z,101390.20
2023-04-09T03:21:51.980Z,101394.69
2023-04-09T03:24:21.241Z,101396.85
2023-04-09T03:26:48.474Z,101399.77
2023-04-09T03:29:16.462Z,101400.23
2023-04-09T03:31:44.050Z,101403.44
2023-04-09T03:34:11.452Z,101400.88
2023-04-09T03:36:38.973Z,101401.95
2023-04-09T03:39:20.925Z,101404.26
2023-04-09T03:41:48.245Z,101403.71
2023-04-09T03:44:16.645Z,101409.01
2023-04-09T03:46:55.574Z,101407.03
2023-04-09T03:49:23.345Z,101406.00
2023-04-09T03:51:50.286Z,101409.24
2023-04-09T03:54:19.091Z,101407.34
2023-04-09T03:56:46.803Z,101409.96
2023-04-09T03:59:16.422Z,101410.12
2023-04-09T04:01:46.007Z,101415.81
2023-04-09T04:04:13.487Z,101413.77
2023-04-09T04:06:47.722Z,101417.48
2023-04-09T04:09:18.181Z,101421.14
2023-04-09T04:11:52.790Z,101420.82
2023-04-09T04:14:20.780Z,101421.83
2023-04-09T04:16:52.362Z,101423.45
2023-04-09T04:19:21.418Z,101424.73
2023-04-09T04:21:50.025Z,101425.33
2023-04-09T04:24:17.992Z,101427.38
2023-04-09T04:26:45.120Z,101425.37
2023-04-09T04:29:13.932Z,101426.11
2023-04-09T04:31:51.710Z,101432.60
2023-04-09T04:34:20.759Z,101435.73
2023-04-09T04:36:51.850Z,101434.54
2023-04-09T04:39:19.311Z,101428.38
2023-04-09T04:41:59.437Z,101431.29
2023-04-09T04:44:28.916Z,101431.20
2023-04-09T04:47:03.074Z,101431.38
2023-04-09T04:49:31.248Z,101435.98
2023-04-09T04:51:58.163Z,101434.30
2023-04-09T04:54:25.349Z,101438.08
2023-04-09T04:56:55.777Z,101439.81
2023-04-09T04:59:42.896Z,101442.88
2023-04-09T05:02:53.427Z,101443.42
2023-04-09T05:05:57.814Z,101450.73
2023-04-09T05:08:27.957Z,101450.13
2023-04-09T05:10:58.902Z,101457.34
2023-04-09T05:13:34.041Z,101459.33
2023-04-09T05:16:04.425Z,101463.49
2023-04-09T05:18:35.014Z,101466.10
2023-04-09T05:21:03.327Z,101462.58
2023-04-09T05:23:37.069Z,101469.67
2023-04-09T05:26:08.108Z,101472.08
2023-04-09T05:28:46.354Z,101470.50
2023-04-09T05:31:25.080Z,101475.11
2023-04-09T05:34:13.702Z,101476.31
2023-04-09T05:36:48.770Z,101478.95
2023-04-09T05:39:23.615Z,101478.42
2023-04-09T05:41:56.541Z,101476.16
2023-04-09T05:44:34.698Z,101482.20
2023-04-09T05:47:09.945Z,101487.36
2023-04-09T05:49:50.749Z,101483.48
2023-04-09T05:52:20.043Z,101488.77
2023-04-09T05:54:48.556Z,101491.28
2023-04-09T05:57:20.713Z,101490.36
2023-04-09T05:59:57.658Z,101498.27
2023-04-09T06:02:26.848Z,101497.65
2023-04-09T06:04:55.790Z,101498.83
2023-04-09T06:07:24.236Z,101507.64
2023-04-09T06:09:52.435Z,101506.34
2023-04-09T06:12:20.980Z,101506.84
2023-04-09T06:14:49.930Z,101514.90
2023-04-09T06:17:22.313Z,101512.20
2023-04-09T06:19:51.134Z,101515.27
2023-04-09T06:22:22.578Z,101519.16
2023-04-09T06:24:50.827Z,101518.92
2023-04-09T06:27:22.673Z,101523.86
2023-04-09T06:29:51.441Z,101526.73
2023-04-09T06:32:19.721Z,101525.22
2023-04-09T06:34:51.514Z,101525.41
2023-04-09T06:37:22.463Z,101529.23
2023-04-09T06:40:00.568Z,101528.36
2023-04-09T06:42:31.076Z,101532.39
2023-04-09T06:45:08.948Z,101533.90
2023-04-09T06:47:37.382Z,101536.82
2023-04-09T06:50:13.334Z,101532.99
2023-04-09T06:52:52.390Z,101539.54
2023-04-09T06:55:21.167Z,101540.63
2023-04-09T06:57:51.054Z,101551.71
2023-04-09T07:00:26.410Z,101547.67
2023-04-09T07:03:15.789Z,101551.61
2023-04-09T07:05:47.644Z,101552.17
2023-04-09T07:08:16.261Z,101549.16
2023-04-09T07:10:59.490Z,101551.90
2023-04-09T07:13:35.235Z,101553.64
2023-04-09T07:16:03.692Z,101558.97
2023-04-09T07:18:32.335Z,101558.00
2023-04-09T07:21:04.435Z,101557.73
2023-04-09T07:23:36.595Z,101561.73
2023-04-09T07:26:07.146Z,101561.10
2023-04-09T07:28:36.829Z,101563.31
2023-04-09T07:31:06.684Z,101564.70
2023-04-09T07:34:00.082Z,101563.46
2023-04-09T07:36:39.537Z,101559.62
2023-04-09T07:39:11.226Z,101561.05
2023-04-09T07:41:41.844Z,101562.66
2023-04-09T07:44:10.302Z,101556.23
2023-04-09T07:46:44.084Z,101559.73
2023-04-09T07:49:16.906Z,101558.41
2023-04-09T07:55:35.678Z,101563.55
2023-04-09T07:58:06.086Z,101566.00
2023-04-09T08:04:05.940Z,101566.77
2023-04-09T08:10:16.751Z,101568.52
2023-04-09T08:12:48.415Z,101567.02
2023-04-09T08:15:20.180Z,101564.69
2023-04-09T08:17:52.682Z,101566.08
2023-04-09T08:20:21.081Z,101564.37
2023-04-09T08:22:55.774Z,101564.20
2023-04-09T08:25:24.484Z,101564.73
2023-04-09T08:27:53.456Z,101560.44
2023-04-09T08:30:29.552Z,101557.09
2023-04-09T08:32:58.602Z,101560.00
2023-04-09T08:35:28.785Z,101557.94
2023-04-09T08:37:58.057Z,101558.58
2023-04-09T08:40:26.316Z,101557.89
2023-04-09T08:42:58.714Z,101556.64
2023-04-09T08:45:26.994Z,101556.44
2023-04-09T08:47:59.835Z,101560.36
2023-04-09T08:50:32.639Z,101560.94
2023-04-09T08:53:03.133Z,101557.90
2023-04-09T08:55:34.621Z,101561.41
2023-04-09T08:58:07.710Z,101561.56
2023-04-09T09:00:38.122Z,101566.63
2023-04-09T09:03:09.575Z,101567.11
2023-04-09T09:05:40.141Z,101564.55
2023-04-09T09:08:24.717Z,101566.08
2023-04-09T09:10:53.714Z,101561.58
2023-04-09T09:13:26.373Z,101563.15
2023-04-09T09:16:11.840Z,101564.62
2023-04-09T09:18:42.278Z,101562.82
2023-04-09T09:21:15.861Z,101565.05
2023-04-09T09:23:48.060Z,101566.30
2023-04-09T09:26:21.853Z,101561.78
2023-04-09T09:28:54.254Z,101565.81
2023-04-09T09:31:26.486Z,101570.70
2023-04-09T09:34:08.955Z,101571.76
2023-04-09T09:36:39.494Z,101573.89
2023-04-09T09:39:12.079Z,101576.42
2023-04-09T09:41:46.131Z,101579.08
2023-04-09T09:44:31.557Z,101577.80
2023-04-09T09:47:01.764Z,101577.84
2023-04-09T09:49:40.844Z,101581.30
2023-04-09T09:52:12.159Z,101581.65
2023-04-09T09:54:42.876Z,101585.75
2023-04-09T09:57:14.728Z,101582.10
2023-04-09T09:59:54.310Z,101581.16
2023-04-09T10:02:27.152Z,101587.19
2023-04-09T10:04:55.517Z,101587.15
2023-04-09T10:07:26.978Z,101585.20
2023-04-09T10:09:55.549Z,101587.35
2023-04-09T10:12:24.120Z,101586.09
2023-04-09T10:14:56.279Z,101588.77
2023-04-09T10:17:25.116Z,101593.36
2023-04-09T10:20:34.770Z,101592.80
2023-04-09T10:23:05.893Z,101593.91
2023-04-09T10:25:39.539Z,101595.66
2023-04-09T10:28:17.554Z,101597.54
2023-04-09T10:30:46.644Z,101602.89
2023-04-09T10:33:29.023Z,101595.58
2023-04-09T10:36:02.296Z,101596.95
2023-04-09T10:38:41.271Z,101596.66
2023-04-09T10:41:22.824Z,101598.25
2023-04-09T10:43:51.060Z,101599.57
2023-04-09T10:46:34.761Z,101599.14
2023-04-09T10:49:19.402Z,101596.40
2023-04-09T10:51:55.218Z,101598.00
2023-04-09T10:54:33.569Z,101598.60
2023-04-09T10:57:14.055Z,101598.67
2023-04-09T10:59:47.076Z,101597.36
2023-04-09T11:02:40.578Z,101599.89
2023-04-09T11:05:18.316Z,101598.92
2023-04-09T11:08:14.301Z,101598.77
2023-04-09T11:10:50.457Z,101599.57
2023-04-09T11:13:22.383Z,101602.18
2023-04-09T11:15:52.051Z,101598.44
2023-04-09T11:18:25.969Z,101595.93
2023-04-09T11:21:14.093Z,101595.52
2023-04-09T11:23:53.976Z,101593.03
2023-04-09T11:26:36.942Z,101591.02
2023-04-09T11:29:09.154Z,101584.79
2023-04-09T11:31:48.684Z,101587.05
2023-04-09T11:34:36.821Z,101583.14
2023-04-09T11:37:09.386Z,101585.30
2023-04-09T11:39:44.590Z,101582.79
2023-04-09T11:42:20.701Z,101577.73
2023-04-09T11:44:55.889Z,101574.98
2023-04-09T11:47:28.172Z,101571.88
2023-04-09T11:50:03.661Z,101578.10
2023-04-09T11:52:46.654Z,101570.05
2023-04-09T11:55:40.155Z,101570.05
2023-04-09T11:58:16.786Z,101565.27
2023-04-09T12:00:49.391Z,101571.04
2023-04-09T12:03:37.671Z,101567.88
2023-04-09T12:06:19.943Z,101564.00
2023-04-09T12:11:48.264Z,101562.25
2023-04-09T12:17:16.841Z,101559.89
2023-04-09T12:20:08.653Z,101559.19
2023-04-09T12:22:49.389Z,101561.34
2023-04-09T12:25:32.617Z,101560.42
2023-04-09T12:28:27.419Z,101563.08
2023-04-09T12:30:59.718Z,101562.58
2023-04-09T12:33:48.468Z,101562.45
2023-04-09T12:36:19.166Z,101559.92
2023-04-09T12:38:49.966Z,101559.09
2023-04-09T12:41:18.604Z,101557.29
2023-04-09T12:43:51.353Z,101559.58
2023-04-09T12:46:20.138Z,101557.71
2023-04-09T12:48:53.210Z,101558.44
2023-04-09T12:51:25.583Z,101561.73
2023-04-09T12:53:57.028Z,101555.02
2023-04-09T12:56:25.316Z,101551.84
2023-04-09T13:00:44.732Z,101549.67
2023-04-09T13:03:18.005Z,101553.79
2023-04-09T13:05:48.196Z,101550.48
2023-04-09T13:08:18.198Z,101548.73
2023-04-09T13:10:47.220Z,101547.33
2023-04-09T13:13:15.800Z,101541.34
2023-04-09T13:15:45.294Z,101539.38
2023-04-09T13:18:13.826Z,101538.63
2023-04-09T13:20:44.743Z,101541.02
2023-04-09T13:23:16.683Z,101536.44
2023-04-09T13:25:50.854Z,101541.57
2023-04-09T13:28:22.963Z,101535.33
2023-04-09T13:30:52.977Z,101539.80
2023-04-09T13:33:41.221Z,101528.03
2023-04-09T13:36:09.609Z,101527.73
2023-04-09T13:38:38.128Z,101529.89
2023-04-09T13:41:07.105Z,101533.73
2023-04-09T13:43:35.758Z,101532.39
2023-04-09T13:46:05.463Z,101534.98
2023-04-09T13:48:36.248Z,101531.60
2023-04-09T13:51:05.678Z,101529.31
2023-04-09T13:53:34.817Z,101533.77
2023-04-09T13:56:03.965Z,101530.91
2023-04-09T13:58:32.595Z,101528.43
2023-04-09T14:01:03.152Z,101531.38
2023-04-09T14:03:38.692Z,101530.79
2023-04-09T14:06:08.782Z,101530.58
2023-04-09T14:08:38.550Z,101523.23
2023-04-09T14:11:09.054Z,101527.58
2023-04-09T14:13:41.679Z,101525.57
2023-04-09T14:16:11.972Z,101528.41
2023-04-09T14:18:40.837Z,101525.77
2023-04-09T14:21:11.893Z,101520.53
2023-04-09T14:23:40.845Z,101518.15
2023-04-09T14:26:13.406Z,101525.52
2023-04-09T14:28:51.091Z,101523.35
2023-04-09T14:31:22.624Z,101527.84
2023-04-09T14:33:55.919Z,101526.12
2023-04-09T14:36:24.899Z,101527.98
2023-04-09T14:39:03.011Z,101528.39
2023-04-09T14:41:34.465Z,101529.77
2023-04-09T14:44:22.740Z,101527.37
2023-04-09T14:47:14.839Z,101525.49
2023-04-09T14:49:56.752Z,101527.95
2023-04-09T14:52:36.776Z,101528.59
2023-04-09T14:55:27.950Z,101525.91
2023-04-09T14:58:04.641Z,101523.40
2023-04-09T15:00:36.346Z,101520.94
2023-04-09T15:03:07.281Z,101520.15
2023-04-09T15:05:38.324Z,101521.81
2023-04-09T15:08:13.259Z,101519.21
2023-04-09T15:10:54.188Z,101518.11
2023-04-09T15:13:22.873Z,101513.33
2023-04-09T15:15:57.098Z,101514.52
2023-04-09T15:19:02.024Z,101515.10
2023-04-09T15:21:42.308Z,101507.50
2023-04-09T15:24:10.555Z,101511.43
2023-04-09T15:26:40.018Z,101509.80
2023-04-09T15:29:22.873Z,101509.45
2023-04-09T15:31:56.441Z,101509.54
2023-04-09T15:34:32.968Z,101502.80
2023-04-09T15:37:03.676Z,101502.93
2023-04-09T15:39:32.759Z,101500.17
2023-04-09T15:42:04.653Z,101501.67
2023-04-09T15:44:52.966Z,101500.48
2023-04-09T15:47:21.632Z,101501.89
2023-04-09T15:49:50.088Z,101505.02
2023-04-09T15:52:27.179Z,101499.21
2023-04-09T15:54:56.733Z,101498.28
2023-04-09T15:57:26.617Z,101498.94
2023-04-09T15:59:57.958Z,101492.61
2023-04-09T16:02:30.094Z,101499.05
2023-04-09T16:04:59.324Z,101494.71
2023-04-09T16:07:31.847Z,101495.36
2023-04-09T16:10:14.902Z,101493.48
2023-04-09T16:12:44.437Z,101492.46
2023-04-09T16:15:13.717Z,101490.46
2023-04-09T16:17:45.882Z,101497.73
2023-04-09T16:20:24.191Z,101491.02
2023-04-09T16:22:52.941Z,101493.15
2023-04-09T16:25:24.698Z,101495.05
2023-04-09T16:28:17.544Z,101493.48
2023-04-09T16:30:57.225Z,101490.09
2023-04-09T16:33:36.064Z,101490.59
2023-04-09T16:36:05.474Z,101489.52
2023-04-09T16:38:42.794Z,101486.33
2023-04-09T16:41:11.842Z,101492.98
2023-04-09T16:43:46.831Z,101498.86
2023-04-09T16:46:18.382Z,101496.92
2023-04-09T16:48:46.774Z,101499.73
2023-04-09T16:51:17.163Z,101501.55
2023-04-09T16:53:45.875Z,101502.87
2023-04-09T16:56:20.755Z,101506.80
2023-04-09T16:58:51.825Z,101510.17
2023-04-09T17:01:21.161Z,101509.39
2023-04-09T17:03:59.769Z,101507.70
2023-04-09T17:06:31.998Z,101506.54
2023-04-09T17:09:02.212Z,101509.89
2023-04-09T17:11:34.513Z,101512.20
2023-04-09T17:14:04.720Z,101512.59
2023-04-09T17:19:28.787Z,101510.52
2023-04-09T17:24:49.686Z,101510.20
2023-04-09T17:27:21.947Z,101517.06
2023-04-09T17:29:54.351Z,101516.63
2023-04-09T17:32:25.541Z,101521.38
2023-04-09T17:34:54.525Z,101518.10
2023-04-09T17:37:32.042Z,101518.78
2023-04-09T17:40:03.854Z,101518.20
2023-04-09T17:42:39.297Z,101520.79
2023-04-09T17:45:09.977Z,101521.15
2023-04-09T17:47:41.148Z,101526.73
2023-04-09T17:50:09.942Z,101530.98
2023-04-09T17:52:44.973Z,101529.55
2023-04-09T17:55:15.054Z,101532.24
2023-04-09T17:57:48.255Z,101531.12
2023-04-09T18:00:16.919Z,101531.80
2023-04-09T18:02:52.462Z,101532.58
2023-04-09T18:05:22.230Z,101531.13
2023-04-09T18:07:57.635Z,101533.75
2023-04-09T18:10:26.360Z,101532.87
2023-04-09T18:13:03.963Z,101530.62
2023-04-09T18:15:33.166Z,101532.64
2023-04-09T18:18:02.106Z,101531.23
2023-04-09T18:20:32.398Z,101534.48
2023-04-09T18:23:03.894Z,101534.30
2023-04-09T18:25:37.984Z,101531.73
2023-04-09T18:28:08.870Z,101536.39
2023-04-09T18:30:39.983Z,101534.54
2023-04-09T18:33:12.436Z,101532.86
2023-04-09T18:35:45.312Z,101536.53
2023-04-09T18:38:17.982Z,101534.90
2023-04-09T18:40:47.083Z,101534.66
2023-04-09T18:43:15.733Z,101534.18
2023-04-09T18:45:49.926Z,101532.03
2023-04-09T18:48:19.432Z,101531.30
2023-04-09T18:50:48.805Z,101531.72
2023-04-09T18:53:20.858Z,101533.39
2023-04-09T18:55:50.112Z,101534.74
2023-04-09T18:58:18.994Z,101533.45
2023-04-09T19:00:51.146Z,101528.23
2023-04-09T19:03:19.828Z,101528.85
2023-04-09T19:05:48.914Z,101529.89
2023-04-09T19:08:21.502Z,101528.23
2023-04-09T19:10:49.888Z,101526.29
2023-04-09T19:13:18.935Z,101524.34
2023-04-09T19:15:48.599Z,101523.11
2023-04-09T19:18:18.826Z,101525.86
2023-04-09T19:20:48.714Z,101524.27
2023-04-09T19:23:19.959Z,101525.85
2023-04-09T19:25:53.698Z,101523.53
2023-04-09T19:28:23.285Z,101524.34
2023-04-09T19:30:54.901Z,101523.73
2023-04-09T19:33:24.180Z,101529.02
2023-04-09T19:35:54.540Z,101522.02
2023-04-09T19:38:30.840Z,101518.22
2023-04-09T19:41:00.598Z,101523.77
2023-04-09T19:43:33.666Z,101528.89
2023-04-09T19:46:11.426Z,101529.62
2023-04-09T19:48:41.454Z,101530.78
2023-04-09T19:51:20.495Z,101533.33
2023-04-09T19:53:49.451Z,101532.17
2023-04-09T19:56:23.800Z,101531.80
2023-04-09T19:58:52.531Z,101535.76
2023-04-09T20:01:22.816Z,101535.98
2023-04-09T20:03:51.124Z,101533.52
2023-04-09T20:06:21.502Z,101533.81
2023-04-09T20:08:53.534Z,101530.48
2023-04-09T20:11:22.862Z,101530.98
2023-04-09T20:13:52.171Z,101524.09
2023-04-09T20:16:23.928Z,101524.05
2023-04-09T20:18:52.482Z,101521.42
2023-04-09T20:21:22.337Z,101522.27
2023-04-09T20:23:50.959Z,101521.02
2023-04-09T20:26:19.592Z,101524.17
2023-04-09T20:28:48.748Z,101524.81
2023-04-09T20:31:17.221Z,101522.09
2023-04-09T20:33:45.960Z,101523.41
2023-04-09T20:36:15.916Z,101524.80
2023-04-09T20:38:45.143Z,101519.88
2023-04-09T20:41:13.326Z,101520.30
2023-04-09T20:43:41.918Z,101516.11
2023-04-09T20:46:15.604Z,101517.37
2023-04-09T20:48:44.293Z,101516.95
2023-04-09T20:51:12.776Z,101516.67
2023-04-09T20:53:41.766Z,101511.46
2023-04-09T20:56:10.038Z,101512.47
2023-04-09T20:58:42.090Z,101515.67
2023-04-09T21:01:11.352Z,101514.35
2023-04-09T21:03:40.337Z,101515.38
2023-04-09T21:06:09.238Z,101517.80
2023-04-09T21:08:43.951Z,101511.39
2023-04-09T21:11:12.257Z,101508.77
2023-04-09T21:13:53.980Z,101503.76
2023-04-09T21:16:26.285Z,101502.35
2023-04-09T21:18:54.805Z,101508.38
2023-04-09T21:21:34.346Z,101507.66
2023-04-09T21:24:04.086Z,101507.80
2023-04-09T21:26:45.250Z,101506.48
2023-04-09T21:29:19.832Z,101507.48
2023-04-09T21:31:48.877Z,101506.67
2023-04-09T21:34:17.120Z,101505.33
2023-04-09T21:36:47.342Z,101504.33
2023-04-09T21:39:16.130Z,101499.51
2023-04-09T21:41:44.326Z,101498.77
2023-04-09T21:44:13.682Z,101501.78
2023-04-09T21:46:41.940Z,101502.27
2023-04-09T21:49:10.857Z,101506.18
2023-04-09T21:51:39.426Z,101507.34
2023-04-09T21:54:09.769Z,101515.41
2023-04-09T21:56:39.786Z,101511.06
2023-04-09T21:59:11.907Z,101514.20
2023-04-09T22:01:41.980Z,101514.36
2023-04-09T22:04:10.482Z,101514.73
2023-04-09T22:06:40.325Z,101516.59
2023-04-09T22:09:08.881Z,101515.77
2023-04-09T22:11:41.490Z,101518.05
2023-04-09T22:14:13.267Z,101514.31
2023-04-09T22:16:42.420Z,101517.60
2023-04-09T22:19:13.165Z,101515.20
2023-04-09T22:21:42.242Z,101519.05
2023-04-09T22:24:11.340Z,101516.55
2023-04-09T22:26:41.234Z,101514.45
2023-04-09T22:29:10.402Z,101517.33
2023-04-09T22:31:39.422Z,101519.27
2023-04-09T22:34:20.162Z,101518.01
2023-04-09T22:36:52.148Z,101519.29
2023-04-09T22:39:21.623Z,101522.96
2023-04-09T22:41:49.836Z,101516.17
2023-04-09T22:44:18.112Z,101518.42
2023-04-09T22:46:49.984Z,101515.71
2023-04-09T22:49:18.204Z,101513.63
2023-04-09T22:51:46.524Z,101515.18
2023-04-09T22:54:15.857Z,101512.55
2023-04-09T22:56:44.937Z,101510.78
2023-04-09T22:59:14.110Z,101513.78
2023-04-09T23:01:43.521Z,101513.05
2023-04-09T23:04:12.186Z,101511.11
2023-04-09T23:06:41.844Z,101512.63
2023-04-09T23:09:09.976Z,101510.49
2023-04-09T23:11:47.994Z,101508.08
2023-04-09T23:14:17.764Z,101510.04
2023-04-09T23:16:46.313Z,101507.65
2023-04-09T23:19:23.427Z,101505.77
2023-04-09T23:21:53.902Z,101502.60
2023-04-09T23:24:22.115Z,101503.67
2023-04-09T23:26:51.000Z,101500.19
2023-04-09T23:29:19.430Z,101501.20
2023-04-09T23:31:49.031Z,101496.74
2023-04-09T23:34:17.370Z,101496.34
2023-04-09T23:36:46.051Z,101495.64
2023-04-09T23:39:17.438Z,101493.20
2023-04-09T23:41:46.121Z,101492.03
2023-04-09T23:44:19.744Z,101487.13
2023-04-09T23:46:48.039Z,101490.84
2023-04-09T23:49:16.740Z,101486.81
2023-04-09T23:51:45.256Z,101486.93
2023-04-09T23:54:13.892Z,101487.98
2023-04-09T23:56:44.214Z,101483.01
2023-04-09T23:59:12.414Z,101484.91
